createdAt,value
2018-10-16T00:01:15.354Z,7.44
2018-10-16T00:03:42.768Z,7.53
2018-10-16T00:06:10.070Z,7.68
2018-10-16T00:08:38.119Z,7.65
2018-10-16T00:11:08.439Z,7.45
2018-10-16T00:13:36.050Z,7.17
2018-10-16T00:16:03.462Z,6.98
2018-10-16T00:18:30.925Z,7.11
2018-10-16T00:20:58.368Z,7.03
2018-10-16T00:23:25.848Z,7.09
2018-10-16T00:25:53.267Z,7.02
2018-10-16T00:28:20.701Z,7.20
2018-10-16T00:30:48.097Z,7.17
2018-10-16T00:33:15.564Z,7.17
2018-10-16T00:35:42.875Z,7.17
2018-10-16T00:38:10.320Z,7.06
2018-10-16T00:40:37.745Z,7.15
2018-10-16T00:43:05.145Z,7.10
2018-10-16T00:45:33.778Z,6.27
2018-10-16T00:48:01.240Z,6.52
2018-10-16T00:50:28.577Z,6.70
2018-10-16T00:52:56.027Z,6.84
2018-10-16T00:55:23.414Z,6.84
2018-10-16T00:57:50.841Z,7.04
2018-10-16T01:00:19.337Z,6.88
2018-10-16T01:02:46.900Z,6.85
2018-10-16T01:05:14.308Z,6.92
2018-10-16T01:07:42.070Z,6.71
2018-10-16T01:10:10.296Z,7.09
2018-10-16T01:12:38.467Z,6.95
2018-10-16T01:15:06.716Z,6.83
2018-10-16T01:17:34.294Z,6.65
2018-10-16T01:20:01.665Z,6.71
2018-10-16T01:22:29.083Z,6.68
2018-10-16T01:24:56.445Z,6.69
2018-10-16T01:27:24.218Z,6.63
2018-10-16T01:29:51.769Z,6.33
2018-10-16T01:32:19.126Z,6.40
2018-10-16T01:34:46.468Z,6.42
2018-10-16T01:37:13.825Z,6.10
2018-10-16T01:39:41.200Z,6.02
2018-10-16T01:42:08.578Z,6.00
2018-10-16T01:44:35.979Z,4.75
2018-10-16T01:47:03.682Z,6.40
2018-10-16T01:49:30.976Z,6.46
2018-10-16T01:51:58.322Z,6.52
2018-10-16T01:54:25.672Z,6.48
2018-10-16T01:56:53.027Z,6.27
2018-10-16T01:59:20.434Z,6.37
2018-10-16T02:01:47.808Z,6.47
2018-10-16T02:04:15.297Z,6.46
2018-10-16T02:06:42.639Z,6.61
2018-10-16T02:09:11.414Z,6.46
2018-10-16T02:11:38.901Z,6.22
2018-10-16T02:14:06.300Z,6.15
2018-10-16T02:16:33.657Z,6.36
2018-10-16T02:19:01.034Z,6.23
2018-10-16T02:21:28.433Z,6.27
2018-10-16T02:23:55.851Z,6.18
2018-10-16T02:26:23.238Z,6.17
2018-10-16T02:28:50.633Z,6.06
2018-10-16T02:31:17.994Z,6.20
2018-10-16T02:33:45.418Z,6.13
2018-10-16T02:36:12.749Z,6.20
2018-10-16T02:38:40.077Z,6.14
2018-10-16T02:41:07.393Z,6.00
2018-10-16T02:43:34.817Z,5.98
2018-10-16T02:46:02.146Z,6.01
2018-10-16T02:48:29.572Z,6.01
2018-10-16T02:50:57.045Z,6.00
2018-10-16T02:53:24.430Z,5.90
2018-10-16T02:55:51.882Z,5.97
2018-10-16T02:58:19.283Z,6.00
2018-10-16T03:00:46.673Z,5.60
2018-10-16T03:03:13.993Z,5.60
2018-10-16T03:05:41.362Z,5.72
2018-10-16T03:08:08.842Z,5.73
2018-10-16T03:10:36.090Z,5.67
2018-10-16T03:13:03.415Z,5.72
2018-10-16T03:15:30.767Z,5.71
2018-10-16T03:17:58.250Z,5.62
2018-10-16T03:20:25.596Z,5.67
2018-10-16T03:22:52.923Z,5.68
2018-10-16T03:25:20.202Z,5.62
2018-10-16T03:27:47.535Z,5.58
2018-10-16T03:30:15.012Z,5.43
2018-10-16T03:32:42.400Z,5.55
2018-10-16T03:35:11.980Z,5.54
2018-10-16T03:37:40.466Z,5.52
2018-10-16T03:40:08.727Z,5.51
2018-10-16T03:42:36.522Z,5.47
2018-10-16T03:45:04.968Z,5.42
2018-10-16T03:47:33.272Z,5.33
2018-10-16T03:50:06.690Z,5.34
2018-10-16T03:52:39.339Z,5.29
2018-10-16T03:55:07.243Z,5.38
2018-10-16T03:57:34.731Z,5.37
2018-10-16T04:00:02.416Z,5.47
2018-10-16T04:02:29.949Z,5.20
2018-10-16T04:04:57.506Z,5.30
2018-10-16T04:07:24.869Z,5.23
2018-10-16T04:09:52.586Z,5.17
2018-10-16T04:12:19.925Z,5.18
2018-10-16T04:14:47.395Z,5.13
2018-10-16T04:17:14.835Z,5.38
2018-10-16T04:19:42.333Z,5.48
2018-10-16T04:22:09.678Z,5.38
2018-10-16T04:24:37.193Z,5.23
2018-10-16T04:27:04.825Z,5.18
2018-10-16T04:29:32.419Z,4.19
2018-10-16T04:31:59.839Z,5.04
2018-10-16T04:34:27.198Z,4.82
2018-10-16T04:36:54.545Z,4.54
2018-10-16T04:39:21.843Z,4.84
2018-10-16T04:41:49.377Z,4.79
2018-10-16T04:44:16.829Z,4.50
2018-10-16T04:46:44.184Z,4.77
2018-10-16T04:49:11.635Z,4.77
2018-10-16T04:51:38.977Z,4.79
2018-10-16T04:54:06.365Z,4.93
2018-10-16T04:56:33.687Z,4.87
2018-10-16T04:59:01.298Z,4.98
2018-10-16T05:01:28.711Z,4.88
2018-10-16T05:03:56.160Z,4.55
2018-10-16T05:06:23.530Z,4.83
2018-10-16T05:08:50.894Z,5.03
2018-10-16T05:11:18.254Z,5.06
2018-10-16T05:13:45.637Z,5.07
2018-10-16T05:16:13.111Z,4.87
2018-10-16T05:18:40.546Z,5.16
2018-10-16T05:21:07.881Z,5.15
2018-10-16T05:23:35.303Z,5.16
2018-10-16T05:26:02.705Z,4.73
2018-10-16T05:28:30.125Z,4.73
2018-10-16T05:30:57.574Z,4.91
2018-10-16T05:33:24.969Z,4.96
2018-10-16T05:35:52.393Z,4.91
2018-10-16T05:38:19.834Z,4.95
2018-10-16T05:40:47.409Z,5.03
2018-10-16T05:43:15.131Z,4.97
2018-10-16T05:45:44.172Z,5.08
2018-10-16T05:48:11.671Z,4.59
2018-10-16T05:50:39.363Z,4.93
2018-10-16T05:53:06.998Z,4.76
2018-10-16T05:55:34.832Z,4.41
2018-10-16T05:58:02.491Z,4.58
2018-10-16T06:00:34.603Z,4.81
2018-10-16T06:03:02.561Z,4.94
2018-10-16T06:05:30.127Z,4.87
2018-10-16T06:08:21.695Z,4.95
2018-10-16T06:10:49.538Z,4.85
2018-10-16T06:13:17.323Z,5.07
2018-10-16T06:15:44.945Z,5.09
2018-10-16T06:18:13.346Z,5.13
2018-10-16T06:20:41.216Z,5.10
2018-10-16T06:23:09.068Z,5.33
2018-10-16T06:25:36.967Z,5.31
2018-10-16T06:28:14.928Z,5.24
2018-10-16T06:30:42.760Z,5.49
2018-10-16T06:33:10.871Z,5.41
2018-10-16T06:35:38.656Z,5.46
2018-10-16T06:38:06.250Z,5.41
2018-10-16T06:40:33.906Z,5.31
2018-10-16T06:43:01.445Z,5.21
2018-10-16T06:45:28.959Z,5.46
2018-10-16T06:47:56.511Z,5.58
2018-10-16T06:50:23.997Z,5.42
2018-10-16T06:52:51.536Z,5.65
2018-10-16T06:55:19.201Z,5.68
2018-10-16T06:57:46.679Z,5.75
2018-10-16T07:00:14.456Z,5.76
2018-10-16T07:02:41.965Z,5.62
2018-10-16T07:05:09.486Z,5.81
2018-10-16T07:07:36.957Z,5.90
2018-10-16T07:10:05.959Z,5.98
2018-10-16T07:12:33.528Z,6.12
2018-10-16T07:15:01.138Z,6.27
2018-10-16T07:17:28.693Z,6.36
2018-10-16T07:19:56.226Z,6.29
2018-10-16T07:22:24.003Z,6.14
2018-10-16T07:24:51.507Z,6.22
2018-10-16T07:27:18.987Z,6.40
2018-10-16T07:29:46.636Z,6.80
2018-10-16T07:32:14.215Z,7.13
2018-10-16T07:34:41.756Z,7.14
2018-10-16T07:37:09.500Z,7.42
2018-10-16T07:39:37.095Z,7.79
2018-10-16T07:42:04.733Z,7.94
2018-10-16T07:44:32.263Z,7.88
2018-10-16T07:46:59.800Z,7.90
2018-10-16T07:49:27.212Z,7.94
2018-10-16T07:51:54.558Z,8.16
2018-10-16T07:54:22.000Z,8.46
2018-10-16T07:56:49.454Z,8.59
2018-10-16T07:59:16.837Z,8.50
2018-10-16T08:01:44.173Z,8.39
2018-10-16T08:04:11.592Z,8.46
2018-10-16T08:06:38.999Z,8.63
2018-10-16T08:09:16.848Z,8.96
2018-10-16T08:11:48.621Z,9.08
2018-10-16T08:14:17.205Z,9.12
2018-10-16T08:16:45.911Z,9.20
2018-10-16T08:19:13.415Z,9.24
2018-10-16T08:21:40.846Z,9.32
2018-10-16T08:24:08.572Z,9.43
2018-10-16T08:26:35.983Z,9.48
2018-10-16T08:29:03.733Z,9.46
2018-10-16T08:31:31.115Z,9.51
2018-10-16T08:33:58.554Z,9.60
2018-10-16T08:36:26.106Z,9.54
2018-10-16T08:39:07.859Z,9.59
2018-10-16T08:43:50.149Z,9.69
2018-10-16T08:46:29.203Z,9.90
2018-10-16T08:49:08.145Z,9.95
2018-10-16T08:51:40.839Z,9.89
2018-10-16T08:54:08.639Z,9.85
2018-10-16T08:56:36.117Z,9.97
2018-10-16T08:59:03.653Z,10.13
2018-10-16T09:01:31.049Z,10.39
2018-10-16T09:03:59.098Z,10.59
2018-10-16T09:06:26.543Z,10.79
2018-10-16T09:08:53.960Z,10.97
2018-10-16T09:11:21.389Z,11.02
2018-10-16T09:13:48.827Z,11.14
2018-10-16T09:16:16.298Z,11.11
2018-10-16T09:18:43.757Z,11.19
2018-10-16T09:21:11.134Z,11.28
2018-10-16T09:23:38.619Z,11.60
2018-10-16T09:26:06.176Z,11.90
2018-10-16T09:28:33.670Z,11.83
2018-10-16T09:31:01.083Z,12.09
2018-10-16T09:33:28.381Z,12.25
2018-10-16T09:35:55.826Z,12.17
2018-10-16T09:38:23.232Z,12.36
2018-10-16T09:40:50.580Z,12.70
2018-10-16T09:43:17.975Z,13.02
2018-10-16T09:45:45.457Z,13.07
2018-10-16T09:48:12.810Z,13.18
2018-10-16T09:50:40.146Z,13.45
2018-10-16T09:53:07.746Z,13.51
2018-10-16T09:55:35.070Z,13.69
2018-10-16T09:58:02.471Z,13.76
2018-10-16T10:00:35.471Z,14.07
2018-10-16T10:03:03.026Z,14.02
2018-10-16T10:05:30.513Z,14.19
2018-10-16T10:07:57.889Z,14.27
2018-10-16T10:10:25.346Z,14.37
2018-10-16T10:12:52.721Z,14.64
2018-10-16T10:15:20.123Z,14.78
2018-10-16T10:17:47.564Z,14.87
2018-10-16T10:20:14.960Z,15.02
2018-10-16T10:22:42.379Z,15.30
2018-10-16T10:25:09.867Z,15.37
2018-10-16T10:27:37.217Z,15.55
2018-10-16T10:30:06.970Z,15.40
2018-10-16T10:32:34.294Z,15.56
2018-10-16T10:35:01.652Z,15.70
2018-10-16T10:37:29.109Z,15.74
2018-10-16T10:39:56.549Z,16.01
2018-10-16T10:42:23.910Z,15.94
2018-10-16T10:44:51.299Z,15.85
2018-10-16T10:47:18.752Z,15.81
2018-10-16T10:49:46.189Z,15.87
2018-10-16T10:52:13.640Z,15.86
2018-10-16T10:54:41.011Z,15.94
2018-10-16T10:57:08.610Z,16.16
2018-10-16T10:59:35.879Z,16.29
2018-10-16T11:02:04.104Z,16.26
2018-10-16T11:04:31.632Z,16.42
2018-10-16T11:06:59.095Z,16.44
2018-10-16T11:09:26.401Z,16.57
2018-10-16T11:11:54.826Z,16.72
2018-10-16T11:14:23.275Z,17.32
2018-10-16T11:16:50.687Z,17.44
2018-10-16T11:19:18.486Z,17.58
2018-10-16T11:21:46.000Z,17.34
2018-10-16T11:24:13.437Z,17.90
2018-10-16T11:26:40.799Z,17.99
2018-10-16T11:29:08.192Z,17.68
2018-10-16T11:31:35.816Z,17.70
2018-10-16T11:34:03.147Z,17.69
2018-10-16T11:36:30.517Z,17.70
2018-10-16T11:38:57.926Z,17.75
2018-10-16T11:41:25.367Z,18.27
2018-10-16T11:43:52.804Z,18.11
2018-10-16T11:46:20.205Z,18.41
2018-10-16T11:48:47.617Z,19.17
2018-10-16T11:51:14.981Z,19.77
2018-10-16T11:53:42.446Z,20.36
2018-10-16T11:56:10.035Z,20.63
2018-10-16T11:58:37.424Z,21.01
2018-10-16T12:01:04.801Z,21.30
2018-10-16T12:03:32.169Z,21.36
2018-10-16T12:05:59.647Z,20.68
2018-10-16T12:08:27.068Z,20.58
2018-10-16T12:10:54.495Z,21.10
2018-10-16T12:13:21.751Z,21.47
2018-10-16T12:15:49.106Z,21.77
2018-10-16T12:18:26.312Z,22.04
2018-10-16T12:20:57.934Z,22.48
2018-10-16T12:23:25.430Z,22.41
2018-10-16T12:25:52.874Z,22.46
2018-10-16T12:28:20.268Z,22.17
2018-10-16T12:30:47.659Z,21.47
2018-10-16T12:33:15.088Z,20.87
2018-10-16T12:35:42.377Z,20.91
2018-10-16T12:38:09.702Z,21.50
2018-10-16T12:40:37.110Z,22.19
2018-10-16T12:43:04.675Z,22.05
2018-10-16T12:45:32.103Z,22.42
2018-10-16T12:47:59.571Z,22.77
2018-10-16T12:50:26.986Z,23.19
2018-10-16T12:52:54.391Z,23.43
2018-10-16T12:55:21.650Z,23.75
2018-10-16T12:57:49.193Z,24.28
2018-10-16T13:00:16.757Z,24.37
2018-10-16T13:02:44.301Z,24.05
2018-10-16T13:05:11.875Z,23.51
2018-10-16T13:07:39.846Z,23.92
2018-10-16T13:10:10.218Z,24.30
2018-10-16T13:12:37.690Z,24.56
2018-10-16T13:15:06.917Z,24.91
2018-10-16T13:17:34.510Z,25.16
2018-10-16T13:20:02.061Z,23.81
2018-10-16T13:22:29.479Z,24.83
2018-10-16T13:24:56.904Z,24.91
2018-10-16T13:27:24.254Z,24.18
2018-10-16T13:29:51.664Z,23.74
2018-10-16T13:32:19.245Z,23.76
2018-10-16T13:34:46.777Z,24.60
2018-10-16T13:37:14.671Z,24.39
2018-10-16T13:39:42.310Z,24.24
2018-10-16T13:42:09.739Z,23.57
2018-10-16T13:44:37.503Z,24.27
2018-10-16T13:47:05.203Z,24.30
2018-10-16T13:49:32.762Z,24.53
2018-10-16T13:52:00.257Z,24.72
2018-10-16T13:54:27.733Z,25.07
2018-10-16T13:56:55.248Z,25.03
2018-10-16T13:59:22.860Z,25.42
2018-10-16T14:01:50.353Z,25.65
2018-10-16T14:04:17.867Z,25.71
2018-10-16T14:06:45.506Z,24.42
2018-10-16T14:09:13.098Z,24.33
2018-10-16T14:11:40.687Z,24.87
2018-10-16T14:14:08.389Z,25.12
2018-10-16T14:16:35.945Z,25.58
2018-10-16T14:19:03.495Z,25.72
2018-10-16T14:21:31.008Z,25.91
2018-10-16T14:23:58.553Z,26.11
2018-10-16T14:26:26.288Z,25.78
2018-10-16T14:28:53.979Z,26.10
2018-10-16T14:31:25.075Z,25.83
2018-10-16T14:33:55.153Z,25.34
2018-10-16T14:36:23.058Z,25.43
2018-10-16T14:38:51.261Z,25.82
2018-10-16T14:41:19.129Z,25.36
2018-10-16T14:43:47.229Z,25.70
2018-10-16T14:46:16.442Z,25.25
2018-10-16T14:48:44.099Z,25.38
2018-10-16T14:51:11.632Z,25.50
2018-10-16T14:53:39.201Z,24.58
2018-10-16T14:56:07.012Z,23.77
2018-10-16T14:58:34.956Z,23.10
2018-10-16T15:01:02.634Z,22.59
2018-10-16T15:03:30.503Z,20.46
2018-10-16T15:08:44.525Z,20.82
2018-10-16T15:13:58.275Z,20.04
2018-10-16T15:18:53.478Z,19.46
2018-10-16T15:21:21.259Z,19.48
2018-10-16T15:23:49.083Z,19.39
2018-10-16T15:26:19.198Z,19.36
2018-10-16T15:28:48.338Z,19.36
2018-10-16T15:31:16.068Z,19.30
2018-10-16T15:33:43.900Z,19.14
2018-10-16T15:38:57.558Z,18.90
2018-10-16T15:41:25.360Z,18.81
2018-10-16T15:43:53.118Z,18.96
2018-10-16T15:46:21.130Z,18.80
2018-10-16T15:51:30.623Z,18.80
2018-10-16T15:53:58.466Z,17.04
2018-10-16T15:56:26.170Z,18.44
2018-10-16T15:58:53.819Z,18.14
2018-10-16T16:01:21.608Z,17.93
2018-10-16T16:03:49.388Z,17.82
2018-10-16T16:06:17.446Z,17.69
2018-10-16T16:08:45.387Z,17.68
2018-10-16T16:11:13.275Z,17.60
2018-10-16T16:13:40.956Z,17.35
2018-10-16T16:16:08.906Z,17.20
2018-10-16T16:18:36.676Z,16.96
2018-10-16T16:21:05.718Z,16.86
2018-10-16T16:23:33.658Z,16.90
2018-10-16T16:26:01.751Z,16.95
2018-10-16T16:28:29.377Z,16.97
2018-10-16T16:30:57.221Z,16.94
2018-10-16T16:33:25.040Z,15.45
2018-10-16T16:35:52.734Z,16.99
2018-10-16T16:38:20.562Z,16.87
2018-10-16T16:40:48.671Z,16.77
2018-10-16T16:43:16.495Z,16.72
2018-10-16T16:45:44.246Z,16.69
2018-10-16T16:48:11.924Z,16.68
2018-10-16T16:50:39.414Z,16.66
2018-10-16T16:53:07.061Z,16.52
2018-10-16T16:55:34.642Z,16.43
2018-10-16T16:58:02.327Z,16.46
2018-10-16T17:00:29.794Z,16.31
2018-10-16T17:02:57.295Z,16.33
2018-10-16T17:05:24.982Z,16.40
2018-10-16T17:07:52.624Z,16.34
2018-10-16T17:10:20.418Z,16.17
2018-10-16T17:12:48.177Z,15.83
2018-10-16T17:15:16.265Z,15.85
2018-10-16T17:17:45.200Z,15.61
2018-10-16T17:20:13.220Z,15.49
2018-10-16T17:22:40.868Z,15.46
2018-10-16T17:25:11.163Z,15.47
2018-10-16T17:27:38.638Z,15.53
2018-10-16T17:30:09.278Z,15.47
2018-10-16T17:32:36.978Z,15.53
2018-10-16T17:35:05.761Z,15.26
2018-10-16T17:37:33.329Z,15.30
2018-10-16T17:40:01.018Z,15.19
2018-10-16T17:42:28.551Z,15.16
2018-10-16T17:44:56.067Z,15.17
2018-10-16T17:47:23.641Z,14.99
2018-10-16T17:49:51.218Z,14.84
2018-10-16T17:52:18.769Z,14.71
2018-10-16T17:54:46.397Z,14.69
2018-10-16T17:57:14.044Z,14.68
2018-10-16T17:59:41.606Z,14.41
2018-10-16T18:02:09.063Z,14.29
2018-10-16T18:04:36.732Z,14.37
2018-10-16T18:07:04.247Z,14.32
2018-10-16T18:09:31.706Z,13.86
2018-10-16T18:11:59.466Z,13.96
2018-10-16T18:14:32.506Z,14.11
2018-10-16T18:17:00.422Z,14.09
2018-10-16T18:19:27.978Z,13.95
2018-10-16T18:21:55.560Z,13.96
2018-10-16T18:24:23.125Z,13.88
2018-10-16T18:26:50.789Z,13.95
2018-10-16T18:29:18.333Z,13.89
2018-10-16T18:31:45.800Z,13.77
2018-10-16T18:34:13.362Z,13.75
2018-10-16T18:36:40.931Z,13.73
2018-10-16T18:39:08.586Z,13.74
2018-10-16T18:41:36.674Z,13.69
2018-10-16T18:44:04.364Z,13.65
2018-10-16T18:46:31.907Z,13.59
2018-10-16T18:48:59.476Z,13.49
2018-10-16T18:51:28.144Z,13.43
2018-10-16T18:53:55.891Z,13.49
2018-10-16T18:56:23.576Z,13.47
2018-10-16T18:58:51.135Z,13.43
2018-10-16T19:01:18.768Z,13.44
2018-10-16T19:03:46.369Z,13.36
2018-10-16T19:06:13.973Z,12.98
2018-10-16T19:08:41.618Z,13.03
2018-10-16T19:11:09.146Z,12.84
2018-10-16T19:13:36.738Z,12.64
2018-10-16T19:16:04.770Z,12.76
2018-10-16T19:18:32.438Z,12.82
2018-10-16T19:21:00.229Z,12.89
2018-10-16T19:23:27.768Z,12.86
2018-10-16T19:25:55.311Z,12.85
2018-10-16T19:28:23.191Z,12.72
2018-10-16T19:30:50.935Z,12.68
2018-10-16T19:33:18.698Z,12.76
2018-10-16T19:35:46.191Z,12.69
2018-10-16T19:38:13.891Z,12.74
2018-10-16T19:40:41.529Z,12.73
2018-10-16T19:43:09.058Z,12.68
2018-10-16T19:45:37.601Z,12.50
2018-10-16T19:48:05.574Z,12.49
2018-10-16T19:50:33.367Z,12.52
2018-10-16T19:53:01.134Z,12.46
2018-10-16T19:55:28.972Z,12.42
2018-10-16T19:57:56.856Z,12.33
2018-10-16T20:00:24.942Z,11.99
2018-10-16T20:02:52.993Z,11.89
2018-10-16T20:05:21.725Z,11.87
2018-10-16T20:07:49.329Z,11.97
2018-10-16T20:10:16.928Z,12.01
2018-10-16T20:12:44.549Z,11.99
2018-10-16T20:15:12.749Z,12.10
2018-10-16T20:17:40.310Z,12.09
2018-10-16T20:20:08.607Z,11.99
2018-10-16T20:22:36.243Z,11.73
2018-10-16T20:25:04.181Z,11.75
2018-10-16T20:27:31.938Z,11.72
2018-10-16T20:29:59.659Z,11.75
2018-10-16T20:32:27.370Z,11.75
2018-10-16T20:34:54.980Z,11.64
2018-10-16T20:37:22.682Z,11.66
2018-10-16T20:39:50.203Z,11.29
2018-10-16T20:42:17.800Z,11.28
2018-10-16T20:44:45.393Z,11.13
2018-10-16T20:47:13.162Z,11.12
2018-10-16T20:49:40.650Z,11.05
2018-10-16T20:52:08.174Z,11.12
2018-10-16T20:54:35.748Z,11.16
2018-10-16T20:57:03.526Z,11.24
2018-10-16T20:59:31.085Z,11.17
2018-10-16T21:01:58.641Z,11.10
2018-10-16T21:04:26.189Z,11.13
2018-10-16T21:06:53.948Z,11.11
2018-10-16T21:09:21.416Z,11.21
2018-10-16T21:11:48.933Z,9.71
2018-10-16T21:14:16.566Z,11.19
2018-10-16T21:16:44.577Z,11.00
2018-10-16T21:19:12.399Z,10.86
2018-10-16T21:21:39.921Z,10.69
2018-10-16T21:24:07.562Z,10.70
2018-10-16T21:26:35.210Z,10.63
2018-10-16T21:29:02.971Z,10.70
2018-10-16T21:31:30.748Z,10.62
2018-10-16T21:33:58.364Z,10.60
2018-10-16T21:36:25.910Z,10.59
2018-10-16T21:38:53.471Z,10.72
2018-10-16T21:41:21.054Z,10.75
2018-10-16T21:43:48.692Z,10.59
2018-10-16T21:46:16.280Z,10.75
2018-10-16T21:48:44.272Z,10.40
2018-10-16T21:51:12.141Z,10.36
2018-10-16T21:53:39.753Z,10.32
2018-10-16T21:56:07.490Z,10.37
2018-10-16T21:58:35.274Z,10.45
2018-10-16T22:01:10.099Z,10.36
2018-10-16T22:03:37.936Z,10.28
2018-10-16T22:06:05.724Z,10.15
2018-10-16T22:08:33.216Z,10.13
2018-10-16T22:11:00.844Z,9.78
2018-10-16T22:13:28.579Z,9.60
2018-10-16T22:15:56.148Z,9.66
2018-10-16T22:18:23.780Z,9.62
2018-10-16T22:20:51.427Z,9.47
2018-10-16T22:23:19.078Z,9.46
2018-10-16T22:25:46.686Z,9.54
2018-10-16T22:28:14.260Z,9.65
2018-10-16T22:30:41.808Z,9.76
2018-10-16T22:33:09.787Z,9.87
2018-10-16T22:35:37.332Z,9.69
2018-10-16T22:38:05.493Z,9.77
2018-10-16T22:40:33.182Z,9.69
2018-10-16T22:43:00.822Z,9.65
2018-10-16T22:45:28.511Z,9.66
2018-10-16T22:47:56.207Z,9.62
2018-10-16T22:50:23.880Z,9.42
2018-10-16T22:52:51.615Z,9.26
2018-10-16T22:55:19.327Z,9.39
2018-10-16T22:57:46.854Z,9.23
2018-10-16T23:00:16.056Z,9.21
2018-10-16T23:02:44.339Z,9.17
2018-10-16T23:05:12.228Z,9.04
2018-10-16T23:07:39.629Z,9.13
2018-10-16T23:10:07.295Z,9.22
2018-10-16T23:12:34.836Z,8.99
2018-10-16T23:15:02.399Z,8.75
2018-10-16T23:17:30.068Z,8.85
2018-10-16T23:19:57.677Z,8.88
2018-10-16T23:22:25.305Z,8.94
2018-10-16T23:24:52.798Z,9.08
2018-10-16T23:27:20.311Z,9.04
2018-10-16T23:29:47.892Z,9.07
2018-10-16T23:32:15.521Z,9.02
2018-10-16T23:34:43.179Z,8.58
2018-10-16T23:37:10.970Z,8.74
2018-10-16T23:39:38.510Z,8.77
2018-10-16T23:42:06.123Z,8.80
2018-10-16T23:44:33.682Z,8.90
2018-10-16T23:47:01.321Z,8.81
2018-10-16T23:49:29.070Z,8.75
2018-10-16T23:51:56.558Z,8.47
2018-10-16T23:54:24.155Z,8.43
2018-10-16T23:56:51.645Z,8.58
2018-10-16T23:59:19.124Z,8.44
